createdAt,value
2019-03-30T00:00:50.903Z,5.9
2019-03-30T00:02:04.675Z,5.3
2019-03-30T00:03:18.445Z,5.3
2019-03-30T00:04:32.183Z,6
2019-03-30T00:05:45.953Z,4.9
2019-03-30T00:06:59.723Z,6.8
2019-03-30T00:08:13.454Z,6.4
2019-03-30T00:09:27.218Z,6.2
2019-03-30T00:10:41.023Z,7.3
2019-03-30T00:11:57.677Z,5.1
2019-03-30T00:13:08.520Z,5.9
2019-03-30T00:14:22.257Z,5.5
2019-03-30T00:15:36.011Z,5.1
2019-03-30T00:16:49.808Z,6
2019-03-30T00:18:03.543Z,5.7
2019-03-30T00:19:17.316Z,6.7
2019-03-30T00:20:32.048Z,5.7
2019-03-30T00:21:45.866Z,5.8
2019-03-30T00:22:59.615Z,5.5
2019-03-30T00:24:13.368Z,8.1
2019-03-30T00:25:27.142Z,6.2
2019-03-30T00:26:40.900Z,5.7
2019-03-30T00:27:54.660Z,5.1
2019-03-30T00:29:08.419Z,5.9
2019-03-30T00:30:22.175Z,5.8
2019-03-30T00:31:35.923Z,5.1
2019-03-30T00:32:49.735Z,6.6
2019-03-30T00:34:03.502Z,6
2019-03-30T00:35:17.291Z,5.2
2019-03-30T00:36:31.103Z,4.7
2019-03-30T00:37:44.835Z,5.7
2019-03-30T00:38:58.582Z,6.5
2019-03-30T00:40:12.363Z,5.8
2019-03-30T00:41:26.181Z,7.5
2019-03-30T00:42:39.917Z,5.3
2019-03-30T00:43:53.709Z,5.6
2019-03-30T00:45:07.444Z,5.8
2019-03-30T00:46:21.215Z,6.1
2019-03-30T00:47:34.984Z,7.3
2019-03-30T00:48:48.734Z,6.1
2019-03-30T00:50:02.494Z,6.4
2019-03-30T00:51:16.297Z,5.8
2019-03-30T00:52:30.065Z,6.2
2019-03-30T00:53:43.838Z,8.1
2019-03-30T00:54:57.605Z,7
2019-03-30T00:56:11.363Z,7.5
2019-03-30T00:57:25.137Z,6.4
2019-03-30T00:58:38.891Z,6.5
2019-03-30T00:59:52.638Z,5.5
2019-03-30T01:01:06.384Z,5.8
2019-03-30T01:02:20.156Z,7
2019-03-30T01:03:33.910Z,7.9
2019-03-30T01:04:47.663Z,8
2019-03-30T01:06:01.439Z,5.4
2019-03-30T01:07:15.197Z,6.2
2019-03-30T01:08:28.961Z,8.5
2019-03-30T01:09:42.718Z,8
2019-03-30T01:10:56.476Z,6.7
2019-03-30T01:12:10.245Z,5
2019-03-30T01:13:24.030Z,6.7
2019-03-30T01:14:37.790Z,7.7
2019-03-30T01:15:51.548Z,5.9
2019-03-30T01:17:05.311Z,6.4
2019-03-30T01:18:19.066Z,5.5
2019-03-30T01:19:32.847Z,6.8
2019-03-30T01:20:46.637Z,6.2
2019-03-30T01:22:00.392Z,6.8
2019-03-30T01:23:14.156Z,6.1
2019-03-30T01:24:27.915Z,7.9
2019-03-30T01:25:41.683Z,5.6
2019-03-30T01:26:55.458Z,6.9
2019-03-30T01:28:09.196Z,9
2019-03-30T01:29:22.956Z,7.1
2019-03-30T01:30:36.707Z,6.7
2019-03-30T01:31:50.477Z,7.9
2019-03-30T01:33:04.253Z,7.5
2019-03-30T01:34:18.008Z,8.7
2019-03-30T01:35:31.781Z,5.7
2019-03-30T01:36:45.549Z,7.4
2019-03-30T01:38:00.296Z,7.3
2019-03-30T01:39:14.030Z,7.6
2019-03-30T01:40:27.781Z,8.1
2019-03-30T01:41:41.547Z,5.3
2019-03-30T01:42:55.346Z,7.2
2019-03-30T01:44:09.118Z,6.7
2019-03-30T01:45:22.878Z,6.4
2019-03-30T01:46:36.630Z,9.3
2019-03-30T01:47:50.455Z,7.3
2019-03-30T01:49:04.202Z,8.5
2019-03-30T01:50:18.212Z,5.1
2019-03-30T01:51:31.677Z,7.2
2019-03-30T01:52:45.427Z,7
2019-03-30T01:53:59.245Z,6.5
2019-03-30T01:55:13.018Z,5.8
2019-03-30T01:56:26.839Z,7.3
2019-03-30T01:57:40.599Z,6.3
2019-03-30T01:58:54.359Z,7.1
2019-03-30T02:00:08.130Z,6.8
2019-03-30T02:01:21.854Z,8
2019-03-30T02:02:35.677Z,6.7
2019-03-30T02:03:49.442Z,7
2019-03-30T02:05:03.217Z,7
2019-03-30T02:06:16.979Z,7.2
2019-03-30T02:07:30.781Z,7.4
2019-03-30T02:08:44.534Z,8.6
2019-03-30T02:09:58.328Z,7.3
2019-03-30T02:11:12.056Z,6.8
2019-03-30T02:12:25.829Z,9
2019-03-30T02:13:39.606Z,7.2
2019-03-30T02:14:53.393Z,8.5
2019-03-30T02:16:07.167Z,6.8
2019-03-30T02:17:20.899Z,7.9
2019-03-30T02:18:34.664Z,6.9
2019-03-30T02:19:48.423Z,8.8
2019-03-30T02:21:02.193Z,8.6
2019-03-30T02:22:15.974Z,7.5
2019-03-30T02:23:29.729Z,7.3
2019-03-30T02:24:43.502Z,7.7
2019-03-30T02:25:57.275Z,6.1
2019-03-30T02:27:11.027Z,7.2
2019-03-30T02:28:24.819Z,8.7
2019-03-30T02:29:38.619Z,7.1
2019-03-30T02:30:52.331Z,8.2
2019-03-30T02:32:06.080Z,7.8
2019-03-30T02:33:19.840Z,7.3
2019-03-30T02:34:33.600Z,8
2019-03-30T02:35:47.355Z,7.8
2019-03-30T02:37:01.129Z,6.5
2019-03-30T02:38:14.886Z,7.2
2019-03-30T02:39:28.637Z,7.2
2019-03-30T02:40:42.429Z,8.3
2019-03-30T02:41:56.176Z,7.2
2019-03-30T02:43:09.946Z,8.3
2019-03-30T02:44:23.724Z,7.9
2019-03-30T02:45:37.467Z,6.8
2019-03-30T02:46:51.230Z,9.4
2019-03-30T02:48:04.974Z,6.7
2019-03-30T02:49:18.826Z,8.6
2019-03-30T02:50:48.077Z,8.1
2019-03-30T02:51:47.303Z,8.2
2019-03-30T02:53:01.075Z,7.2
2019-03-30T02:54:14.861Z,7.7
2019-03-30T02:55:28.630Z,8.6
2019-03-30T02:56:42.395Z,8.4
2019-03-30T02:57:56.161Z,8.7
2019-03-30T02:59:09.933Z,8.3
2019-03-30T03:00:23.718Z,9.5
2019-03-30T03:01:37.458Z,7.5
2019-03-30T03:02:51.196Z,7.5
2019-03-30T03:04:04.978Z,8.8
2019-03-30T03:05:18.781Z,7.8
2019-03-30T03:06:32.511Z,8.9
2019-03-30T03:07:46.252Z,8.7
2019-03-30T03:09:00.054Z,7.4
2019-03-30T03:10:13.824Z,8.3
2019-03-30T03:11:27.612Z,9.8
2019-03-30T03:12:41.398Z,8
2019-03-30T03:13:55.138Z,8.3
2019-03-30T03:15:08.941Z,9.2
2019-03-30T03:16:27.005Z,8.5
2019-03-30T03:17:36.469Z,8.5
2019-03-30T03:18:50.235Z,8.1
2019-03-30T03:20:04.033Z,7.6
2019-03-30T03:21:17.766Z,10.1
2019-03-30T03:22:31.529Z,10
2019-03-30T03:23:45.309Z,8.6
2019-03-30T03:24:59.096Z,9.4
2019-03-30T03:26:12.887Z,11.4
2019-03-30T03:27:26.663Z,10.8
2019-03-30T03:28:40.416Z,10.7
2019-03-30T03:29:54.212Z,8.2
2019-03-30T03:31:07.979Z,9.1
2019-03-30T03:32:21.721Z,10.9
2019-03-30T03:33:35.467Z,9.1
2019-03-30T03:34:49.289Z,9
2019-03-30T03:36:03.036Z,9.6
2019-03-30T03:37:16.788Z,9.8
2019-03-30T03:38:30.542Z,10.9
2019-03-30T03:39:45.298Z,9.2
2019-03-30T03:40:59.278Z,9.3
2019-03-30T03:42:13.015Z,9.8
2019-03-30T03:43:26.758Z,10.1
2019-03-30T03:44:40.521Z,9.6
2019-03-30T03:45:54.274Z,10.5
2019-03-30T03:47:08.022Z,10.2
2019-03-30T03:48:21.813Z,11.5
2019-03-30T03:49:35.558Z,10
2019-03-30T03:50:49.336Z,10.6
2019-03-30T03:52:03.090Z,10.8
2019-03-30T03:53:16.832Z,10.6
2019-03-30T03:54:30.585Z,11.6
2019-03-30T03:55:45.391Z,10.5
2019-03-30T03:56:59.117Z,10.4
2019-03-30T03:58:12.870Z,10
2019-03-30T03:59:26.634Z,10.4
2019-03-30T04:00:40.423Z,11.9
2019-03-30T04:01:54.173Z,9.8
2019-03-30T04:03:07.972Z,11.7
2019-03-30T04:04:21.708Z,9.9
2019-03-30T04:05:35.493Z,9.6
2019-03-30T04:06:49.256Z,10.7
2019-03-30T04:08:03.009Z,9
2019-03-30T04:09:16.782Z,10.9
2019-03-30T04:10:30.591Z,9.3
2019-03-30T04:11:44.326Z,12.1
2019-03-30T04:12:58.085Z,11
2019-03-30T04:14:12.824Z,11.6
2019-03-30T04:15:26.582Z,11.1
2019-03-30T04:16:40.329Z,11.1
2019-03-30T04:17:54.109Z,11.5
2019-03-30T04:19:07.843Z,10.4
2019-03-30T04:20:21.612Z,11.2
2019-03-30T04:21:43.365Z,10.3
2019-03-30T04:22:50.083Z,11.2
2019-03-30T04:24:03.894Z,12
2019-03-30T04:25:17.641Z,11.6
2019-03-30T04:26:31.449Z,10.2
2019-03-30T04:27:45.205Z,10
2019-03-30T04:28:58.952Z,9.5
2019-03-30T04:30:12.702Z,10.4
2019-03-30T04:31:26.510Z,12.3
2019-03-30T04:32:40.249Z,11.5
2019-03-30T04:33:53.993Z,9.3
2019-03-30T04:35:07.767Z,10.7
2019-03-30T04:36:21.536Z,11.4
2019-03-30T04:37:35.298Z,9.6
2019-03-30T04:38:49.087Z,10.4
2019-03-30T04:40:02.834Z,11.8
2019-03-30T04:41:16.606Z,10.1
2019-03-30T04:42:30.359Z,11.1
2019-03-30T04:43:44.105Z,10.8
2019-03-30T04:44:57.865Z,11.9
2019-03-30T04:46:11.664Z,11.4
2019-03-30T04:47:25.417Z,10.2
2019-03-30T04:48:39.145Z,10.2
2019-03-30T04:49:52.900Z,11.4
2019-03-30T04:51:06.652Z,11
2019-03-30T04:52:20.441Z,11.1
2019-03-30T04:53:34.227Z,11.4
2019-03-30T04:54:47.985Z,11.8
2019-03-30T04:56:01.983Z,12.7
2019-03-30T04:57:15.744Z,10.9
2019-03-30T04:58:29.503Z,9.6
2019-03-30T04:59:43.264Z,11.8
2019-03-30T05:00:57.086Z,13
2019-03-30T05:02:10.821Z,11.2
2019-03-30T05:03:24.582Z,11.8
2019-03-30T05:04:38.353Z,11.9
2019-03-30T05:05:52.102Z,10.3
2019-03-30T05:07:05.906Z,10.4
2019-03-30T05:08:19.658Z,11.6
2019-03-30T05:09:33.420Z,12.6
2019-03-30T05:10:47.169Z,10.7
2019-03-30T05:12:00.954Z,13.5
2019-03-30T05:13:14.724Z,12.4
2019-03-30T05:14:28.515Z,11.9
2019-03-30T05:15:42.262Z,11.8
2019-03-30T05:16:56.039Z,11.6
2019-03-30T05:18:09.795Z,12.1
2019-03-30T05:19:23.554Z,12.8
2019-03-30T05:20:37.345Z,12.2
2019-03-30T05:21:51.107Z,10.2
2019-03-30T05:23:05.863Z,11.9
2019-03-30T05:24:19.608Z,10.5
2019-03-30T05:25:33.377Z,10.7
2019-03-30T05:26:47.162Z,11
2019-03-30T05:28:00.965Z,13.6
2019-03-30T05:29:14.720Z,11.5
2019-03-30T05:30:28.489Z,12.9
2019-03-30T05:31:42.291Z,13
2019-03-30T05:33:05.316Z,12.3
2019-03-30T05:34:10.785Z,10.5
2019-03-30T05:35:24.547Z,11.7
2019-03-30T05:36:38.304Z,11.1
2019-03-30T05:37:52.155Z,11.3
2019-03-30T05:39:06.914Z,13.9
2019-03-30T05:40:20.674Z,12.1
2019-03-30T05:41:35.423Z,12
2019-03-30T05:42:49.169Z,11.1
2019-03-30T05:44:02.945Z,11.9
2019-03-30T05:45:16.716Z,11.5
2019-03-30T05:46:30.483Z,13.3
2019-03-30T05:47:44.343Z,12.7
2019-03-30T05:48:58.160Z,13.5
2019-03-30T05:50:12.089Z,11.4
2019-03-30T05:51:25.840Z,11.7
2019-03-30T05:52:39.651Z,12.1
2019-03-30T05:53:53.454Z,10.9
2019-03-30T05:55:07.190Z,10.9
2019-03-30T05:56:20.991Z,11.4
2019-03-30T05:57:34.790Z,13.2
2019-03-30T05:58:48.644Z,11.9
2019-03-30T06:00:02.442Z,15
2019-03-30T06:01:16.169Z,11.8
2019-03-30T06:02:30.153Z,10.2
2019-03-30T06:03:44.397Z,11.2
2019-03-30T06:04:58.630Z,11.8
2019-03-30T06:06:11.914Z,10.8
2019-03-30T06:07:25.671Z,13.1
2019-03-30T06:08:39.463Z,11.9
2019-03-30T06:09:53.224Z,10.3
2019-03-30T06:11:06.952Z,10.8
2019-03-30T06:12:20.721Z,11.6
2019-03-30T06:13:34.496Z,12.7
2019-03-30T06:14:48.312Z,9.3
2019-03-30T06:16:02.046Z,12
2019-03-30T06:17:16.861Z,9.9
2019-03-30T06:18:30.626Z,12.6
2019-03-30T06:19:44.391Z,10.9
2019-03-30T06:20:58.153Z,12.3
2019-03-30T06:22:11.907Z,11.5
2019-03-30T06:23:25.681Z,10.8
2019-03-30T06:24:39.459Z,11.8
2019-03-30T06:25:53.244Z,12.5
2019-03-30T06:27:07.025Z,10.1
2019-03-30T06:28:20.809Z,10
2019-03-30T06:29:34.560Z,13.4
2019-03-30T06:30:48.303Z,13.8
2019-03-30T06:32:02.087Z,10.8
2019-03-30T06:33:15.853Z,12.6
2019-03-30T06:34:29.608Z,13
2019-03-30T06:35:43.407Z,10
2019-03-30T06:36:57.155Z,11.9
2019-03-30T06:38:11.002Z,11.4
2019-03-30T06:39:24.791Z,12.2
2019-03-30T06:40:38.560Z,11.3
2019-03-30T06:41:52.361Z,11.1
2019-03-30T06:43:07.635Z,12.7
2019-03-30T06:44:19.823Z,12.1
2019-03-30T06:45:33.596Z,11.7
2019-03-30T06:46:47.355Z,11.5
2019-03-30T06:48:01.199Z,10.6
2019-03-30T06:49:15.253Z,12
2019-03-30T06:50:29.666Z,10.8
2019-03-30T06:51:43.518Z,10.6
2019-03-30T06:52:58.727Z,10.8
2019-03-30T06:54:14.538Z,9.1
2019-03-30T06:55:24.921Z,10.7
2019-03-30T06:56:38.691Z,10.3
2019-03-30T06:57:52.490Z,9.4
2019-03-30T06:59:06.519Z,9.7
2019-03-30T07:00:20.250Z,11
2019-03-30T07:01:34.046Z,10.3
2019-03-30T07:02:48.067Z,11
2019-03-30T07:04:02.130Z,10.2
2019-03-30T07:05:16.904Z,9.6
2019-03-30T07:06:30.687Z,9.9
2019-03-30T07:07:44.467Z,10.4
2019-03-30T07:09:05.298Z,9.9
2019-03-30T07:10:19.034Z,10.6
2019-03-30T07:11:32.779Z,11.4
2019-03-30T07:12:46.551Z,9.9
2019-03-30T07:14:00.323Z,9.2
2019-03-30T07:15:14.041Z,11
2019-03-30T07:16:27.779Z,12.5
2019-03-30T07:17:42.521Z,11.6
2019-03-30T07:18:57.279Z,10.9
2019-03-30T07:20:11.065Z,11.4
2019-03-30T07:21:24.842Z,11.1
2019-03-30T07:22:38.593Z,9.9
2019-03-30T07:23:52.356Z,11.4
2019-03-30T07:25:06.152Z,10.7
2019-03-30T07:26:19.880Z,10.6
2019-03-30T07:27:33.627Z,11
2019-03-30T07:28:47.474Z,10.8
2019-03-30T07:30:01.195Z,10.9
2019-03-30T07:31:14.935Z,12.2
2019-03-30T07:32:28.681Z,11.1
2019-03-30T07:33:42.495Z,11.1
2019-03-30T07:34:56.262Z,10.4
2019-03-30T07:36:10.020Z,11.8
2019-03-30T07:37:23.753Z,11.6
2019-03-30T07:38:37.543Z,10.5
2019-03-30T07:39:51.384Z,10.3
2019-03-30T07:41:04.092Z,11.2
2019-03-30T07:42:17.839Z,11.8
2019-03-30T07:43:31.603Z,11.3
2019-03-30T07:44:45.423Z,10.8
2019-03-30T07:45:59.170Z,11.6
2019-03-30T07:47:12.839Z,10.6
2019-03-30T07:48:26.588Z,10.5
2019-03-30T07:49:40.372Z,10.8
2019-03-30T07:50:54.110Z,9.1
2019-03-30T07:52:07.862Z,10.6
2019-03-30T07:53:26.495Z,11
2019-03-30T07:54:35.435Z,12.2
2019-03-30T07:55:49.156Z,10.8
2019-03-30T07:57:05.464Z,11.8
2019-03-30T07:58:18.566Z,11.1
2019-03-30T07:59:32.345Z,10.2
2019-03-30T08:00:46.068Z,11.1
2019-03-30T08:01:59.785Z,9.9
2019-03-30T08:03:13.519Z,11.2
2019-03-30T08:04:28.744Z,11.7
2019-03-30T08:05:41.027Z,9.7
2019-03-30T08:06:54.763Z,9.6
2019-03-30T08:08:07.498Z,10.7
2019-03-30T08:09:21.299Z,10.8
2019-03-30T08:10:35.083Z,9.8
2019-03-30T08:11:48.823Z,10.4
2019-03-30T08:13:02.592Z,13.6
2019-03-30T08:14:16.322Z,11
2019-03-30T08:15:30.093Z,11.5
2019-03-30T08:16:43.857Z,10.2
2019-03-30T08:17:57.633Z,10.6
2019-03-30T08:19:11.374Z,9.7
2019-03-30T08:20:25.127Z,10.5
2019-03-30T08:21:38.871Z,10.6
2019-03-30T08:22:52.626Z,11.3
2019-03-30T08:24:06.351Z,10.8
2019-03-30T08:25:20.123Z,10.6
2019-03-30T08:26:35.576Z,10.5
2019-03-30T08:27:47.589Z,12.5
2019-03-30T08:29:01.344Z,12.1
2019-03-30T08:30:15.132Z,11.4
2019-03-30T08:31:28.855Z,10.6
2019-03-30T08:32:42.599Z,10.8
2019-03-30T08:33:56.352Z,10.7
2019-03-30T08:35:10.130Z,9
2019-03-30T08:36:23.862Z,11.5
2019-03-30T08:37:37.614Z,9.7
2019-03-30T08:38:51.358Z,11.9
2019-03-30T08:40:05.126Z,11
2019-03-30T08:41:18.908Z,10.6
2019-03-30T08:42:32.621Z,9
2019-03-30T08:43:46.390Z,11.3
2019-03-30T08:45:00.357Z,10.2
2019-03-30T08:46:13.924Z,9.5
2019-03-30T08:47:27.677Z,11.7
2019-03-30T08:48:41.408Z,10.5
2019-03-30T08:49:55.246Z,9.4
2019-03-30T08:51:09.001Z,9.9
2019-03-30T08:52:22.837Z,8.3
2019-03-30T08:53:36.582Z,11.8
2019-03-30T08:54:51.472Z,8.8
2019-03-30T08:56:05.296Z,9.7
2019-03-30T08:57:19.041Z,8
2019-03-30T08:58:32.786Z,7.6
2019-03-30T08:59:46.519Z,8.4
2019-03-30T09:01:00.268Z,10.2
2019-03-30T09:02:13.989Z,9.1
2019-03-30T09:03:27.742Z,10.2
2019-03-30T09:04:41.487Z,9.1
2019-03-30T09:05:55.241Z,7.9
2019-03-30T09:07:09.010Z,8.1
2019-03-30T09:08:22.752Z,8.5
2019-03-30T09:09:36.517Z,7.6
2019-03-30T09:10:50.281Z,7.7
2019-03-30T09:12:04.060Z,7.4
2019-03-30T09:13:17.848Z,8.5
2019-03-30T09:14:31.585Z,9.3
2019-03-30T09:15:45.352Z,8.3
2019-03-30T09:16:59.068Z,7.3
2019-03-30T09:18:12.790Z,7.4
2019-03-30T09:19:26.550Z,10.1
2019-03-30T09:20:40.293Z,8.7
2019-03-30T09:21:54.014Z,9.2
2019-03-30T09:23:07.770Z,10.3
2019-03-30T09:24:21.505Z,9.2
2019-03-30T09:25:35.861Z,8.6
2019-03-30T09:26:49.580Z,8.6
2019-03-30T09:28:03.933Z,9.4
2019-03-30T09:29:17.686Z,9.6
2019-03-30T09:30:31.469Z,8.8
2019-03-30T09:31:45.202Z,10.4
2019-03-30T09:32:58.930Z,10.8
2019-03-30T09:34:12.699Z,8.6
2019-03-30T09:35:26.457Z,7.7
2019-03-30T09:36:40.335Z,8.2
2019-03-30T09:37:53.938Z,8.7
2019-03-30T09:39:07.717Z,8.2
2019-03-30T09:40:21.538Z,9
2019-03-30T09:41:35.268Z,9.8
2019-03-30T09:42:49.012Z,10.6
2019-03-30T09:44:02.734Z,8.2
2019-03-30T09:45:16.451Z,9.9
2019-03-30T09:46:30.209Z,10.4
2019-03-30T09:47:43.959Z,10.5
2019-03-30T09:48:57.698Z,8.7
2019-03-30T09:50:11.441Z,9
2019-03-30T09:51:25.194Z,10.8
2019-03-30T09:52:38.919Z,9.8
2019-03-30T09:53:52.701Z,9.4
2019-03-30T09:55:06.486Z,8.8
2019-03-30T09:56:20.244Z,10
2019-03-30T09:57:34.000Z,13
2019-03-30T09:58:47.728Z,9
2019-03-30T10:00:01.476Z,10.5
2019-03-30T10:01:15.241Z,11.6
2019-03-30T10:02:29.003Z,12.2
2019-03-30T10:03:42.754Z,11.9
2019-03-30T10:04:56.495Z,12.7
2019-03-30T10:06:10.241Z,11.9
2019-03-30T10:07:24.006Z,12
2019-03-30T10:08:37.794Z,13.2
2019-03-30T10:09:51.537Z,13.1
2019-03-30T10:11:05.298Z,12.2
2019-03-30T10:12:19.024Z,12.3
2019-03-30T10:13:32.787Z,11.9
2019-03-30T10:14:46.532Z,10.2
2019-03-30T10:16:00.336Z,13.1
2019-03-30T10:17:14.108Z,13.2
2019-03-30T10:18:27.834Z,11.7
2019-03-30T10:19:41.578Z,12.2
2019-03-30T10:20:56.357Z,10.6
2019-03-30T10:22:10.616Z,10.8
2019-03-30T10:23:24.436Z,11.2
2019-03-30T10:24:38.651Z,12.9
2019-03-30T10:25:51.847Z,12.4
2019-03-30T10:27:05.596Z,10.4
2019-03-30T10:28:19.351Z,11
2019-03-30T10:29:33.095Z,12.1
2019-03-30T10:30:46.919Z,11
2019-03-30T10:32:00.699Z,10.8
2019-03-30T10:33:14.442Z,11.7
2019-03-30T10:34:28.206Z,10.4
2019-03-30T10:35:41.936Z,12.4
2019-03-30T10:36:55.724Z,12.1
2019-03-30T10:38:09.497Z,13.9
2019-03-30T10:39:23.199Z,10.5
2019-03-30T10:40:36.986Z,13.4
2019-03-30T10:41:49.751Z,16.1
2019-03-30T10:43:03.527Z,14.7
2019-03-30T10:44:17.267Z,11.6
2019-03-30T10:45:31.024Z,11
2019-03-30T10:46:45.539Z,11.7
2019-03-30T10:47:59.282Z,13
2019-03-30T10:49:13.028Z,12.7
2019-03-30T10:50:26.777Z,12.9
2019-03-30T10:51:40.532Z,13.1
2019-03-30T10:52:54.268Z,11.1
2019-03-30T10:54:07.999Z,11
2019-03-30T10:55:21.754Z,12.6
2019-03-30T10:56:35.541Z,10.9
2019-03-30T10:57:49.280Z,12.1
2019-03-30T10:59:04.033Z,12.1
2019-03-30T11:00:17.788Z,10.8
2019-03-30T11:01:31.555Z,11.6
2019-03-30T11:02:45.348Z,11
2019-03-30T11:03:59.102Z,13.3
2019-03-30T11:05:12.843Z,11.7
2019-03-30T11:06:26.591Z,10.6
2019-03-30T11:07:40.362Z,11.3
2019-03-30T11:08:54.114Z,8.9
2019-03-30T11:10:07.865Z,10.8
2019-03-30T11:11:21.638Z,11.2
2019-03-30T11:12:35.380Z,11.1
2019-03-30T11:13:49.118Z,11.3
2019-03-30T11:15:02.865Z,10.5
2019-03-30T11:16:16.615Z,11.5
2019-03-30T11:17:30.356Z,13.7
2019-03-30T11:18:44.090Z,11.2
2019-03-30T11:19:57.843Z,12.7
2019-03-30T11:21:11.583Z,10.5
2019-03-30T11:22:25.342Z,10.4
2019-03-30T11:23:39.084Z,10.4
2019-03-30T11:25:06.177Z,8.6
2019-03-30T11:26:07.554Z,11.2
2019-03-30T11:27:21.323Z,11
2019-03-30T11:28:35.074Z,8.6
2019-03-30T11:29:48.816Z,10.4
2019-03-30T11:31:05.237Z,12.6
2019-03-30T11:32:16.276Z,12.3
2019-03-30T11:33:30.005Z,13.1
2019-03-30T11:34:43.752Z,10.5
2019-03-30T11:35:57.483Z,13.3
2019-03-30T11:37:11.283Z,12.3
2019-03-30T11:38:25.038Z,11.8
2019-03-30T11:39:38.790Z,11.2
2019-03-30T11:40:52.559Z,12.5
2019-03-30T11:42:06.354Z,12
2019-03-30T11:43:20.092Z,10.2
2019-03-30T11:44:33.822Z,9.7
2019-03-30T11:45:47.556Z,11.1
2019-03-30T11:47:01.305Z,9.6
2019-03-30T11:48:15.069Z,13.4
2019-03-30T11:49:28.805Z,9.9
2019-03-30T11:50:42.559Z,12.9
2019-03-30T11:51:56.298Z,11.2
2019-03-30T11:53:10.039Z,9.3
2019-03-30T11:54:23.781Z,10.4
2019-03-30T11:55:37.553Z,11.5
2019-03-30T11:56:51.288Z,9.9
2019-03-30T11:58:05.060Z,9.1
2019-03-30T11:59:18.790Z,9.9
2019-03-30T12:00:32.544Z,11.2
2019-03-30T12:01:46.291Z,11.1
2019-03-30T12:03:00.063Z,10.8
2019-03-30T12:04:13.804Z,12.7
2019-03-30T12:05:27.568Z,11.2
2019-03-30T12:06:41.305Z,11.2
2019-03-30T12:07:55.070Z,10.6
2019-03-30T12:09:08.927Z,10.7
2019-03-30T12:10:22.688Z,10.6
2019-03-30T12:11:36.455Z,9.9
2019-03-30T12:12:50.225Z,9.9
2019-03-30T12:14:03.962Z,11.1
2019-03-30T12:15:17.703Z,10.5
2019-03-30T12:16:31.447Z,10.5
2019-03-30T12:17:45.204Z,9.7
2019-03-30T12:18:58.932Z,9.3
2019-03-30T12:20:12.691Z,9.8
2019-03-30T12:21:26.416Z,8.3
2019-03-30T12:22:40.184Z,10.8
2019-03-30T12:23:53.948Z,10
2019-03-30T12:25:07.705Z,13.7
2019-03-30T12:26:21.431Z,8.5
2019-03-30T12:27:35.164Z,9.7
2019-03-30T12:28:48.946Z,8.4
2019-03-30T12:30:02.690Z,10.5
2019-03-30T12:31:16.491Z,8.5
2019-03-30T12:32:30.238Z,8.3
2019-03-30T12:33:43.996Z,9.4
2019-03-30T12:34:57.728Z,10.1
2019-03-30T12:36:11.466Z,8.4
2019-03-30T12:37:25.201Z,9.2
2019-03-30T12:38:38.972Z,10.5
2019-03-30T12:39:52.756Z,9.3
2019-03-30T12:41:06.491Z,10.7
2019-03-30T12:42:20.250Z,9.4
2019-03-30T12:43:33.982Z,10.8
2019-03-30T12:44:47.766Z,8.9
2019-03-30T12:46:00.520Z,7.9
2019-03-30T12:47:14.280Z,9.8
2019-03-30T12:48:28.047Z,9.6
2019-03-30T12:49:45.067Z,8.4
2019-03-30T12:50:55.508Z,8.1
2019-03-30T12:52:09.255Z,9.9
2019-03-30T12:53:23.056Z,8.5
2019-03-30T12:54:36.835Z,8.5
2019-03-30T12:55:50.573Z,9.3
2019-03-30T12:57:04.312Z,9.3
2019-03-30T12:58:18.062Z,9
2019-03-30T12:59:31.813Z,11.3
2019-03-30T13:00:45.563Z,10.7
2019-03-30T13:01:59.336Z,10.4
2019-03-30T13:03:13.081Z,9.6
2019-03-30T13:04:26.847Z,9
2019-03-30T13:05:40.588Z,8.9
2019-03-30T13:06:55.337Z,11.4
2019-03-30T13:08:09.120Z,10.8
2019-03-30T13:09:23.064Z,9.8
2019-03-30T13:10:36.833Z,10.4
2019-03-30T13:11:51.612Z,7.5
2019-03-30T13:13:05.371Z,8.1
2019-03-30T13:14:19.169Z,8.6
2019-03-30T13:15:32.912Z,9.1
2019-03-30T13:16:46.666Z,7.9
2019-03-30T13:18:00.409Z,8
2019-03-30T13:19:14.204Z,7.3
2019-03-30T13:20:27.991Z,10.1
2019-03-30T13:21:51.646Z,10.4
2019-03-30T13:22:56.435Z,10.4
2019-03-30T13:24:10.202Z,9.2
2019-03-30T13:25:23.992Z,9.6
2019-03-30T13:26:37.762Z,7.7
2019-03-30T13:27:53.331Z,10.2
2019-03-30T13:29:05.283Z,9.5
2019-03-30T13:30:19.046Z,9.4
2019-03-30T13:31:32.821Z,9.4
2019-03-30T13:32:46.649Z,9.9
2019-03-30T13:34:00.400Z,8.2
2019-03-30T13:35:14.159Z,13.1
2019-03-30T13:36:27.904Z,9.9
2019-03-30T13:37:41.666Z,9.2
2019-03-30T13:38:55.447Z,8.4
2019-03-30T13:40:09.241Z,9.5
2019-03-30T13:41:22.992Z,8.2
2019-03-30T13:42:36.745Z,8.8
2019-03-30T13:43:50.510Z,8.9
2019-03-30T13:45:04.259Z,8.3
2019-03-30T13:46:17.995Z,9.3
2019-03-30T13:47:31.749Z,9.4
2019-03-30T13:48:46.462Z,8.1
2019-03-30T13:50:00.266Z,8.1
2019-03-30T13:51:14.018Z,8.1
2019-03-30T13:52:27.797Z,10.3
2019-03-30T13:53:41.528Z,8.6
2019-03-30T13:54:55.324Z,9.2
2019-03-30T13:56:16.864Z,9.2
2019-03-30T13:57:23.770Z,9.2
2019-03-30T13:58:37.497Z,10.2
2019-03-30T13:59:51.262Z,9.9
2019-03-30T14:01:05.092Z,9.6
2019-03-30T14:02:18.845Z,10.1
2019-03-30T14:03:32.620Z,10.8
2019-03-30T14:04:46.368Z,8.9
2019-03-30T14:06:00.139Z,9.9
2019-03-30T14:07:13.907Z,9.5
2019-03-30T14:08:27.659Z,9
2019-03-30T14:09:41.410Z,12.7
2019-03-30T14:10:55.175Z,11.8
2019-03-30T14:12:08.891Z,10
2019-03-30T14:13:23.615Z,9.8
2019-03-30T14:14:37.414Z,8.1
2019-03-30T14:15:51.223Z,9
2019-03-30T14:17:04.967Z,9.3
2019-03-30T14:18:18.704Z,10.8
2019-03-30T14:19:32.456Z,10.8
2019-03-30T14:20:46.220Z,10.6
2019-03-30T14:22:00.008Z,8.9
2019-03-30T14:23:13.777Z,8.8
2019-03-30T14:24:27.534Z,11
2019-03-30T14:25:41.333Z,9.8
2019-03-30T14:26:55.121Z,8
2019-03-30T14:28:08.855Z,9.2
2019-03-30T14:29:22.599Z,12.4
2019-03-30T14:30:36.408Z,9.6
2019-03-30T14:31:50.157Z,9.3
2019-03-30T14:33:03.917Z,8.8
2019-03-30T14:34:17.674Z,10.4
2019-03-30T14:35:31.462Z,9.4
2019-03-30T14:36:45.230Z,8.6
2019-03-30T14:37:58.989Z,9
2019-03-30T14:39:12.758Z,9.9
2019-03-30T14:40:26.501Z,10
2019-03-30T14:41:40.283Z,11
2019-03-30T14:42:54.050Z,11.8
2019-03-30T14:44:08.653Z,9.6
2019-03-30T14:45:22.503Z,11.7
2019-03-30T14:46:36.263Z,11.2
2019-03-30T14:47:50.024Z,9.2
2019-03-30T14:49:04.805Z,10.9
2019-03-30T14:50:18.602Z,10.2
2019-03-30T14:51:33.134Z,9.8
2019-03-30T14:52:46.888Z,11.6
2019-03-30T14:54:00.622Z,9.8
2019-03-30T14:55:14.420Z,10.9
2019-03-30T14:56:28.195Z,10.5
2019-03-30T14:57:42.941Z,9
2019-03-30T14:59:09.335Z,11.2
2019-03-30T15:00:11.515Z,9.8
2019-03-30T15:01:25.163Z,10.4
2019-03-30T15:02:38.892Z,11.8
2019-03-30T15:03:52.629Z,14
2019-03-30T15:05:06.385Z,12.4
2019-03-30T15:06:20.198Z,10.2
2019-03-30T15:07:33.947Z,9.9
2019-03-30T15:08:47.729Z,9.9
2019-03-30T15:10:01.500Z,9.4
2019-03-30T15:11:15.269Z,10.5
2019-03-30T15:12:29.075Z,11
2019-03-30T15:13:42.817Z,10.9
2019-03-30T15:14:56.590Z,12.7
2019-03-30T15:16:10.314Z,11.3
2019-03-30T15:17:24.111Z,11.8
2019-03-30T15:18:37.846Z,12.5
2019-03-30T15:19:51.614Z,13.9
2019-03-30T15:21:08.362Z,11.3
2019-03-30T15:22:19.144Z,9.8
2019-03-30T15:23:32.845Z,10.2
2019-03-30T15:24:46.585Z,10.4
2019-03-30T15:26:00.365Z,11.3
2019-03-30T15:27:14.418Z,9.8
2019-03-30T15:28:28.189Z,8.9
2019-03-30T15:29:45.216Z,10.6
2019-03-30T15:30:55.733Z,10.2
2019-03-30T15:32:09.478Z,10.7
2019-03-30T15:33:23.237Z,11.4
2019-03-30T15:34:36.983Z,12
2019-03-30T15:35:50.737Z,11.5
2019-03-30T15:37:04.475Z,11.5
2019-03-30T15:38:18.233Z,9.9
2019-03-30T15:39:31.970Z,9.4
2019-03-30T15:40:45.713Z,9.3
2019-03-30T15:42:00.447Z,9.3
2019-03-30T15:43:14.207Z,9.8
2019-03-30T15:44:27.965Z,10.8
2019-03-30T15:45:41.750Z,9.4
2019-03-30T15:46:55.504Z,14.1
2019-03-30T15:48:09.269Z,10.2
2019-03-30T15:49:22.996Z,8.9
2019-03-30T15:50:36.748Z,11.2
2019-03-30T15:51:50.493Z,12.5
2019-03-30T15:53:04.254Z,10
2019-03-30T15:54:17.978Z,9.3
2019-03-30T15:55:31.741Z,9.9
2019-03-30T15:56:45.497Z,11.1
2019-03-30T15:57:59.273Z,11
2019-03-30T15:59:13.014Z,9.8
2019-03-30T16:00:26.754Z,11.2
2019-03-30T16:01:40.495Z,11.3
2019-03-30T16:02:54.285Z,10.6
2019-03-30T16:04:08.058Z,10.5
2019-03-30T16:05:21.805Z,9.2
2019-03-30T16:06:35.598Z,9.7
2019-03-30T16:07:49.336Z,11.5
2019-03-30T16:09:03.094Z,11.7
2019-03-30T16:10:16.834Z,9.7
2019-03-30T16:11:30.619Z,9.9
2019-03-30T16:12:44.424Z,9.4
2019-03-30T16:13:58.149Z,10.8
2019-03-30T16:15:11.911Z,11.3
2019-03-30T16:16:25.667Z,11.4
2019-03-30T16:17:39.414Z,10.8
2019-03-30T16:18:53.198Z,9.9
2019-03-30T16:20:07.006Z,9.9
2019-03-30T16:21:20.749Z,10.5
2019-03-30T16:22:34.516Z,12.2
2019-03-30T16:23:48.303Z,11.3
2019-03-30T16:25:02.167Z,12.5
2019-03-30T16:26:15.853Z,11
2019-03-30T16:27:29.681Z,10.9
2019-03-30T16:28:44.381Z,11.5
2019-03-30T16:29:58.725Z,12.1
2019-03-30T16:31:11.911Z,11.6
2019-03-30T16:32:25.654Z,10.4
2019-03-30T16:33:39.444Z,10.5
2019-03-30T16:34:54.198Z,11.5
2019-03-30T16:36:07.932Z,9.6
2019-03-30T16:37:21.687Z,10.5
2019-03-30T16:38:35.438Z,10.5
2019-03-30T16:39:49.243Z,10.5
2019-03-30T16:41:03.012Z,11
2019-03-30T16:42:16.737Z,9.6
2019-03-30T16:43:30.558Z,10.1
2019-03-30T16:44:44.331Z,11.2